createdAt,value
2018-09-24T00:01:57.744Z,25.20
2018-09-24T00:04:38.339Z,25.20
2018-09-24T00:07:19.739Z,25.10
2018-09-24T00:10:00.939Z,25.20
2018-09-24T00:12:41.752Z,25.20
2018-09-24T00:15:22.420Z,25.20
2018-09-24T00:18:02.983Z,25.20
2018-09-24T00:20:44.568Z,25.20
2018-09-24T00:23:25.946Z,25.20
2018-09-24T00:26:07.499Z,25.20
2018-09-24T00:28:48.968Z,25.10
2018-09-24T00:31:30.352Z,25.10
2018-09-24T00:34:10.876Z,25.10
2018-09-24T00:36:51.987Z,25.20
2018-09-24T00:39:32.968Z,25.20
2018-09-24T00:42:13.480Z,25.20
2018-09-24T00:44:53.984Z,25.20
2018-09-24T00:47:35.412Z,25.20
2018-09-24T00:50:16.805Z,25.20
2018-09-24T00:52:58.295Z,25.20
2018-09-24T00:55:39.787Z,25.20
2018-09-24T00:58:20.392Z,25.20
2018-09-24T01:01:00.900Z,25.20
2018-09-24T01:03:42.949Z,25.20
2018-09-24T01:06:24.455Z,25.20
2018-09-24T01:09:05.362Z,25.20
2018-09-24T01:11:45.900Z,25.20
2018-09-24T01:14:26.499Z,25.20
2018-09-24T01:17:07.019Z,25.20
2018-09-24T01:19:48.462Z,25.20
2018-09-24T01:22:29.044Z,25.20
2018-09-24T01:25:10.392Z,25.10
2018-09-24T01:27:51.815Z,25.10
2018-09-24T01:30:33.279Z,25.10
2018-09-24T01:33:13.883Z,25.10
2018-09-24T01:35:55.335Z,25.10
2018-09-24T01:38:35.867Z,25.20
2018-09-24T01:41:16.419Z,25.20
2018-09-24T01:43:57.828Z,25.20
2018-09-24T01:46:39.378Z,25.20
2018-09-24T01:49:19.836Z,25.20
2018-09-24T01:52:00.606Z,25.20
2018-09-24T01:54:42.062Z,25.20
2018-09-24T01:57:23.583Z,25.20
2018-09-24T02:00:04.951Z,25.20
2018-09-24T02:02:45.580Z,25.20
2018-09-24T02:05:26.184Z,25.10
2018-09-24T02:08:07.479Z,25.10
2018-09-24T02:10:48.100Z,25.10
2018-09-24T02:13:29.391Z,25.10
2018-09-24T02:16:09.966Z,25.10
2018-09-24T02:18:51.399Z,25.10
2018-09-24T02:21:31.829Z,25.10
2018-09-24T02:24:12.463Z,25.10
2018-09-24T02:26:53.816Z,25.10
2018-09-24T02:29:35.355Z,25.10
2018-09-24T02:32:16.625Z,25.10
2018-09-24T02:34:58.550Z,25.10
2018-09-24T02:37:39.700Z,25.10
2018-09-24T02:40:23.095Z,25.10
2018-09-24T02:43:03.692Z,25.10
2018-09-24T02:45:44.240Z,25.20
2018-09-24T02:48:25.612Z,25.20
2018-09-24T02:51:06.180Z,25.20
2018-09-24T02:53:47.627Z,25.20
2018-09-24T02:56:29.541Z,25.20
2018-09-24T02:59:10.455Z,25.20
2018-09-24T03:01:51.944Z,25.20
2018-09-24T03:04:33.377Z,25.30
2018-09-24T03:07:14.815Z,25.30
2018-09-24T03:09:56.200Z,25.40
2018-09-24T03:12:36.740Z,25.40
2018-09-24T03:15:17.284Z,25.40
2018-09-24T03:17:57.984Z,25.40
2018-09-24T03:20:44.435Z,25.40
2018-09-24T03:23:25.910Z,25.40
2018-09-24T03:26:06.483Z,25.40
2018-09-24T03:28:47.887Z,25.40
2018-09-24T03:31:31.008Z,25.40
2018-09-24T03:34:12.372Z,25.30
2018-09-24T03:36:53.497Z,25.20
2018-09-24T03:39:34.892Z,25.20
2018-09-24T03:42:15.412Z,25.10
2018-09-24T03:44:55.984Z,25.10
2018-09-24T03:47:37.487Z,25.10
2018-09-24T03:50:17.980Z,25.10
2018-09-24T03:52:59.432Z,25.10
2018-09-24T03:55:40.786Z,25.00
2018-09-24T03:58:21.412Z,25.00
2018-09-24T04:01:02.884Z,25.00
2018-09-24T04:03:44.375Z,24.90
2018-09-24T04:06:29.984Z,24.90
2018-09-24T04:09:16.143Z,24.90
2018-09-24T04:12:02.540Z,24.90
2018-09-24T04:14:48.731Z,24.90
2018-09-24T04:17:35.183Z,24.80
2018-09-24T04:20:21.687Z,24.80
2018-09-24T04:23:08.096Z,24.80
2018-09-24T04:25:54.626Z,24.70
2018-09-24T04:28:40.709Z,24.70
2018-09-24T04:31:28.975Z,24.70
2018-09-24T04:34:15.580Z,24.70
2018-09-24T04:37:02.046Z,24.70
2018-09-24T04:39:48.356Z,24.70
2018-09-24T04:42:34.644Z,24.70
2018-09-24T04:45:21.325Z,24.70
2018-09-24T04:48:07.528Z,24.70
2018-09-24T04:50:53.712Z,24.70
2018-09-24T04:53:39.156Z,24.70
2018-09-24T04:56:25.596Z,24.70
2018-09-24T04:59:12.003Z,24.70
2018-09-24T05:01:58.435Z,24.70
2018-09-24T05:04:44.743Z,24.60
2018-09-24T05:07:30.160Z,24.60
2018-09-24T05:10:15.721Z,24.60
2018-09-24T05:13:02.116Z,24.60
2018-09-24T05:15:48.515Z,24.60
2018-09-24T05:18:34.809Z,24.50
2018-09-24T05:21:21.348Z,24.50
2018-09-24T05:24:07.785Z,24.50
2018-09-24T05:26:54.133Z,24.50
2018-09-24T05:29:40.541Z,24.50
2018-09-24T05:32:26.838Z,24.50
2018-09-24T05:35:13.452Z,24.40
2018-09-24T05:37:59.639Z,24.40
2018-09-24T05:40:46.144Z,24.40
2018-09-24T05:43:32.291Z,24.40
2018-09-24T05:46:18.756Z,24.40
2018-09-24T05:49:05.303Z,24.40
2018-09-24T05:51:51.576Z,24.30
2018-09-24T05:54:39.965Z,24.30
2018-09-24T05:57:25.661Z,24.30
2018-09-24T06:00:12.296Z,24.20
2018-09-24T06:02:58.339Z,24.20
2018-09-24T06:05:44.960Z,24.20
2018-09-24T06:08:31.243Z,24.20
2018-09-24T06:11:18.664Z,24.20
2018-09-24T06:14:04.951Z,24.20
2018-09-24T06:16:51.640Z,24.20
2018-09-24T06:19:37.908Z,24.30
2018-09-24T06:22:24.415Z,24.30
2018-09-24T06:25:11.624Z,24.30
2018-09-24T06:27:58.281Z,24.40
2018-09-24T06:30:44.428Z,24.30
2018-09-24T06:33:30.968Z,24.30
2018-09-24T06:36:17.403Z,24.30
2018-09-24T06:39:03.724Z,24.30
2018-09-24T06:41:49.999Z,24.20
2018-09-24T06:44:36.737Z,24.20
2018-09-24T06:47:22.850Z,24.20
2018-09-24T06:50:09.386Z,24.20
2018-09-24T06:52:55.655Z,24.20
2018-09-24T06:55:42.051Z,24.10
2018-09-24T06:58:28.532Z,24.10
2018-09-24T07:01:15.872Z,24.20
2018-09-24T07:04:02.453Z,24.20
2018-09-24T07:06:48.667Z,24.20
2018-09-24T07:09:35.225Z,24.30
2018-09-24T07:12:21.804Z,24.30
2018-09-24T07:15:07.940Z,24.40
2018-09-24T07:17:54.765Z,24.40
2018-09-24T07:20:40.760Z,24.50
2018-09-24T07:23:27.192Z,24.60
2018-09-24T07:26:13.376Z,24.70
2018-09-24T07:28:59.879Z,24.90
2018-09-24T07:31:46.306Z,25.10
2018-09-24T07:34:32.537Z,25.20
2018-09-24T07:37:19.021Z,25.40
2018-09-24T07:40:05.300Z,25.60
2018-09-24T07:42:51.848Z,25.80
2018-09-24T07:45:38.335Z,26.00
2018-09-24T07:48:24.783Z,26.30
2018-09-24T07:51:11.203Z,26.50
2018-09-24T07:53:57.644Z,26.70
2018-09-24T07:56:43.840Z,26.80
2018-09-24T07:59:30.673Z,27.10
2018-09-24T08:02:16.558Z,27.40
2018-09-24T08:05:03.155Z,27.70
2018-09-24T08:07:49.952Z,28.00
2018-09-24T08:10:35.717Z,28.30
2018-09-24T08:13:22.103Z,28.40
2018-09-24T08:16:08.512Z,28.40
2018-09-24T08:18:54.741Z,28.50
2018-09-24T08:21:41.072Z,28.50
2018-09-24T08:24:27.619Z,28.50
2018-09-24T08:27:13.931Z,28.50
2018-09-24T08:30:00.823Z,28.70
2018-09-24T08:32:46.927Z,28.80
2018-09-24T08:35:33.992Z,29.10
2018-09-24T08:38:20.510Z,29.50
2018-09-24T08:41:06.805Z,30.00
2018-09-24T08:43:53.267Z,30.30
2018-09-24T08:46:39.464Z,30.40
2018-09-24T08:49:26.103Z,30.40
2018-09-24T08:52:13.395Z,30.20
2018-09-24T08:54:59.932Z,30.00
2018-09-24T08:57:46.392Z,29.70
2018-09-24T09:00:32.863Z,29.10
2018-09-24T09:03:19.733Z,28.60
2018-09-24T09:06:05.496Z,28.10
2018-09-24T09:08:51.708Z,27.80
2018-09-24T09:11:38.195Z,27.50
2018-09-24T09:14:24.436Z,27.40
2018-09-24T09:17:11.063Z,27.40
2018-09-24T09:19:58.260Z,27.40
2018-09-24T09:22:44.639Z,27.50
2018-09-24T09:25:31.170Z,27.40
2018-09-24T09:28:17.660Z,27.30
2018-09-24T09:31:05.815Z,27.20
2018-09-24T09:33:52.255Z,27.30
2018-09-24T09:36:38.741Z,27.40
2018-09-24T09:39:25.056Z,27.60
2018-09-24T09:42:11.475Z,27.90
2018-09-24T09:44:57.796Z,28.20
2018-09-24T09:47:45.219Z,28.50
2018-09-24T09:50:31.623Z,28.70
2018-09-24T09:53:17.919Z,28.80
2018-09-24T09:56:04.468Z,28.90
2018-09-24T09:58:51.519Z,28.90
2018-09-24T10:01:38.137Z,28.90
2018-09-24T10:04:24.336Z,28.80
2018-09-24T10:07:10.633Z,28.80
2018-09-24T10:09:57.316Z,28.90
2018-09-24T10:12:43.455Z,29.10
2018-09-24T10:15:30.050Z,29.60
2018-09-24T10:18:16.497Z,30.00
2018-09-24T10:21:03.066Z,30.30
2018-09-24T10:23:49.351Z,30.50
2018-09-24T10:26:35.793Z,30.60
2018-09-24T10:29:22.276Z,30.50
2018-09-24T10:32:08.676Z,30.30
2018-09-24T10:34:55.137Z,30.00
2018-09-24T10:37:41.607Z,29.70
2018-09-24T10:40:27.972Z,29.50
2018-09-24T10:43:14.375Z,29.20
2018-09-24T10:46:00.982Z,29.00
2018-09-24T10:48:47.282Z,28.80
2018-09-24T10:51:33.407Z,28.70
2018-09-24T10:54:19.824Z,28.50
2018-09-24T10:57:06.271Z,28.30
2018-09-24T10:59:52.603Z,28.30
2018-09-24T11:02:39.084Z,28.10
2018-09-24T11:05:25.322Z,28.00
2018-09-24T11:08:10.919Z,28.00
2018-09-24T11:10:57.611Z,27.90
2018-09-24T11:13:43.996Z,27.70
2018-09-24T11:16:31.169Z,27.70
2018-09-24T11:19:16.747Z,27.70
2018-09-24T11:22:03.148Z,27.70
2018-09-24T11:24:49.640Z,27.80
2018-09-24T11:27:35.966Z,27.70
2018-09-24T11:30:22.332Z,27.70
2018-09-24T11:33:08.651Z,27.70
2018-09-24T11:35:55.103Z,27.60
2018-09-24T11:38:41.380Z,27.60
2018-09-24T11:41:27.793Z,27.60
2018-09-24T11:44:14.069Z,27.50
2018-09-24T11:46:59.652Z,27.50
2018-09-24T11:49:46.056Z,27.50
2018-09-24T11:52:32.218Z,27.50
2018-09-24T11:55:18.647Z,27.60
2018-09-24T11:58:05.329Z,27.70
2018-09-24T12:00:51.547Z,27.90
2018-09-24T12:03:38.471Z,28.10
2018-09-24T12:06:24.044Z,28.30
2018-09-24T12:09:10.591Z,28.50
2018-09-24T12:11:57.421Z,28.70
2018-09-24T12:14:43.477Z,28.90
2018-09-24T12:17:29.712Z,29.00
2018-09-24T12:20:16.142Z,29.10
2018-09-24T12:23:02.361Z,29.10
2018-09-24T12:25:48.771Z,29.10
2018-09-24T12:28:35.065Z,29.00
2018-09-24T12:31:21.424Z,28.90
2018-09-24T12:34:07.760Z,28.70
2018-09-24T12:36:54.039Z,28.60
2018-09-24T12:39:40.319Z,28.50
2018-09-24T12:42:26.724Z,28.50
2018-09-24T12:45:13.106Z,28.50
2018-09-24T12:47:59.686Z,28.40
2018-09-24T12:50:53.039Z,28.30
2018-09-24T12:53:38.711Z,28.10
2018-09-24T12:56:25.257Z,28.10
2018-09-24T12:59:11.698Z,27.90
2018-09-24T13:01:57.892Z,27.80
2018-09-24T13:04:44.367Z,27.60
2018-09-24T13:07:30.672Z,27.50
2018-09-24T13:10:16.927Z,27.40
2018-09-24T13:13:03.328Z,27.20
2018-09-24T13:15:49.829Z,27.20
2018-09-24T13:18:36.331Z,27.20
2018-09-24T13:21:22.808Z,27.20
2018-09-24T13:24:09.011Z,27.20
2018-09-24T13:26:55.545Z,27.30
2018-09-24T13:29:41.866Z,27.30
2018-09-24T13:32:28.244Z,27.20
2018-09-24T13:35:15.381Z,27.20
2018-09-24T13:38:01.186Z,27.10
2018-09-24T13:40:47.717Z,27.00
2018-09-24T13:43:34.008Z,27.00
2018-09-24T13:46:20.456Z,26.90
2018-09-24T13:49:06.627Z,27.00
2018-09-24T13:51:53.337Z,27.00
2018-09-24T13:54:39.580Z,27.00
2018-09-24T13:57:25.903Z,27.10
2018-09-24T14:00:13.197Z,27.10
2018-09-24T14:02:58.880Z,27.10
2018-09-24T14:05:45.080Z,27.10
2018-09-24T14:08:31.596Z,27.10
2018-09-24T14:11:17.991Z,27.00
2018-09-24T14:14:04.293Z,27.00
2018-09-24T14:16:50.855Z,26.90
2018-09-24T14:19:37.071Z,26.80
2018-09-24T14:22:23.413Z,26.70
2018-09-24T14:25:09.867Z,26.70
2018-09-24T14:27:56.247Z,26.60
2018-09-24T14:30:42.587Z,26.50
2018-09-24T14:33:29.023Z,26.40
2018-09-24T14:36:15.507Z,26.40
2018-09-24T14:39:01.988Z,26.30
2018-09-24T14:41:48.371Z,26.30
2018-09-24T14:44:34.858Z,26.20
2018-09-24T14:47:21.172Z,26.20
2018-09-24T14:50:07.719Z,26.10
2018-09-24T14:52:53.985Z,26.00
2018-09-24T14:55:40.519Z,26.00
2018-09-24T14:58:26.803Z,25.90
2018-09-24T15:01:14.027Z,25.90
2018-09-24T15:03:59.804Z,25.80
2018-09-24T15:06:46.260Z,25.80
2018-09-24T15:09:32.467Z,25.80
2018-09-24T15:12:18.811Z,25.80
2018-09-24T15:15:05.235Z,25.70
2018-09-24T15:17:51.687Z,25.60
2018-09-24T15:20:38.248Z,25.60
2018-09-24T15:23:24.444Z,25.50
2018-09-24T15:26:10.903Z,25.50
2018-09-24T15:28:57.266Z,25.50
2018-09-24T15:31:43.740Z,25.50
2018-09-24T15:34:30.376Z,25.50
2018-09-24T15:37:16.751Z,25.60
2018-09-24T15:40:03.769Z,25.70
2018-09-24T15:42:49.484Z,25.80
2018-09-24T15:45:35.924Z,25.90
2018-09-24T15:48:22.415Z,25.90
2018-09-24T15:51:08.975Z,25.90
2018-09-24T15:53:55.225Z,25.90
2018-09-24T15:56:41.460Z,25.90
2018-09-24T15:59:27.883Z,25.90
2018-09-24T16:02:14.315Z,25.80
2018-09-24T16:05:00.547Z,25.80
2018-09-24T16:07:47.052Z,25.90
2018-09-24T16:10:33.412Z,26.00
2018-09-24T16:13:19.815Z,26.00
2018-09-24T16:16:06.328Z,26.00
2018-09-24T16:18:53.019Z,26.00
2018-09-24T16:21:39.209Z,26.00
2018-09-24T16:24:25.580Z,26.00
2018-09-24T16:27:11.928Z,26.00
2018-09-24T16:29:58.632Z,26.00
2018-09-24T16:32:44.608Z,26.00
2018-09-24T16:35:31.144Z,26.00
2018-09-24T16:38:17.459Z,25.90
2018-09-24T16:41:04.404Z,25.90
2018-09-24T16:43:50.163Z,25.90
2018-09-24T16:46:35.656Z,25.90
2018-09-24T16:49:22.167Z,25.90
2018-09-24T16:52:08.639Z,25.80
2018-09-24T16:54:54.890Z,25.80
2018-09-24T16:57:41.467Z,25.70
2018-09-24T17:00:27.726Z,25.80
2018-09-24T17:03:14.208Z,25.80
2018-09-24T17:06:00.339Z,25.80
2018-09-24T17:08:46.783Z,25.70
2018-09-24T17:11:33.092Z,25.80
2018-09-24T17:14:18.699Z,25.80
2018-09-24T17:17:05.565Z,25.80
2018-09-24T17:19:51.371Z,25.80
2018-09-24T17:22:37.855Z,25.80
2018-09-24T17:25:23.971Z,25.80
2018-09-24T17:28:10.353Z,25.80
2018-09-24T17:30:56.664Z,25.80
2018-09-24T17:33:43.828Z,25.80
2018-09-24T17:36:29.452Z,25.80
2018-09-24T17:39:15.876Z,25.90
2018-09-24T17:42:02.275Z,25.90
2018-09-24T17:44:48.628Z,25.80
2018-09-24T17:47:35.041Z,25.80
2018-09-24T17:50:21.516Z,25.80
2018-09-24T17:53:07.807Z,25.70
2018-09-24T17:55:54.308Z,25.70
2018-09-24T17:58:40.707Z,25.70
2018-09-24T18:01:27.100Z,25.70
2018-09-24T18:04:13.491Z,25.60
2018-09-24T18:06:59.900Z,25.60
2018-09-24T18:09:46.293Z,25.60
2018-09-24T18:12:32.819Z,25.60
2018-09-24T18:15:19.092Z,25.60
2018-09-24T18:18:05.599Z,25.60
2018-09-24T18:20:52.170Z,25.60
2018-09-24T18:23:38.667Z,25.60
2018-09-24T18:26:25.016Z,25.60
2018-09-24T18:29:11.647Z,25.60
2018-09-24T18:31:57.984Z,25.60
2018-09-24T18:34:44.320Z,25.60
2018-09-24T18:37:30.843Z,25.60
2018-09-24T18:40:17.240Z,25.60
2018-09-24T18:43:03.547Z,25.60
2018-09-24T18:45:49.922Z,25.60
2018-09-24T18:48:37.275Z,25.60
2018-09-24T18:51:23.683Z,25.60
2018-09-24T18:54:10.264Z,25.60
2018-09-24T18:56:56.527Z,25.60
2018-09-24T18:59:42.979Z,25.60
2018-09-24T19:02:29.499Z,25.60
2018-09-24T19:05:15.679Z,25.60
2018-09-24T19:08:02.723Z,25.60
2018-09-24T19:10:48.611Z,25.60
2018-09-24T19:13:35.787Z,25.60
2018-09-24T19:16:21.469Z,25.60
2018-09-24T19:19:07.807Z,25.60
2018-09-24T19:21:54.319Z,25.60
2018-09-24T19:24:40.572Z,25.60
2018-09-24T19:27:27.040Z,25.60
2018-09-24T19:30:14.352Z,25.50
2018-09-24T19:33:00.934Z,25.50
2018-09-24T19:35:47.259Z,25.60
2018-09-24T19:38:33.784Z,25.60
2018-09-24T19:41:20.912Z,25.60
2018-09-24T19:44:07.397Z,25.50
2018-09-24T19:46:53.759Z,25.50
2018-09-24T19:49:40.213Z,25.40
2018-09-24T19:52:26.520Z,25.20
2018-09-24T19:55:12.198Z,25.10
2018-09-24T19:57:58.512Z,25.00
2018-09-24T20:00:45.148Z,25.00
2018-09-24T20:03:31.420Z,25.00
2018-09-24T20:06:17.908Z,25.00
2018-09-24T20:09:04.163Z,25.00
2018-09-24T20:11:50.548Z,24.90
2018-09-24T20:14:36.648Z,24.90
2018-09-24T20:17:23.175Z,25.00
2018-09-24T20:20:09.455Z,25.00
2018-09-24T20:22:56.047Z,25.00
2018-09-24T20:25:42.343Z,24.90
2018-09-24T20:28:29.739Z,24.80
2018-09-24T20:31:16.079Z,24.70
2018-09-24T20:34:03.228Z,24.50
2018-09-24T20:36:48.787Z,24.20
2018-09-24T20:39:35.283Z,23.80
2018-09-24T20:42:21.548Z,23.60
2018-09-24T20:45:08.184Z,23.30
2018-09-24T20:47:54.433Z,23.10
2018-09-24T20:50:40.724Z,23.00
2018-09-24T20:53:27.277Z,22.80
2018-09-24T20:56:13.640Z,22.70
2018-09-24T20:58:59.967Z,22.60
2018-09-24T21:01:46.403Z,22.50
2018-09-24T21:04:32.796Z,22.50
2018-09-24T21:07:19.283Z,22.40
2018-09-24T21:10:05.604Z,22.40
2018-09-24T21:12:51.876Z,22.40
2018-09-24T21:15:38.431Z,22.50
2018-09-24T21:18:24.880Z,22.50
2018-09-24T21:21:11.168Z,22.50
2018-09-24T21:23:57.486Z,22.50
2018-09-24T21:26:44.170Z,22.60
2018-09-24T21:29:30.628Z,22.60
2018-09-24T21:32:16.979Z,22.60
2018-09-24T21:35:03.305Z,22.60
2018-09-24T21:37:49.663Z,22.50
2018-09-24T21:40:36.032Z,22.60
2018-09-24T21:43:22.357Z,22.60
2018-09-24T21:46:08.783Z,22.70
2018-09-24T21:48:55.224Z,22.80
2018-09-24T21:51:41.652Z,22.80
2018-09-24T21:54:27.857Z,22.90
2018-09-24T21:57:14.200Z,22.90
2018-09-24T22:00:00.505Z,22.90
2018-09-24T22:02:46.800Z,23.00
2018-09-24T22:05:33.136Z,23.00
2018-09-24T22:08:19.387Z,22.90
2018-09-24T22:11:05.987Z,23.00
2018-09-24T22:13:52.095Z,23.00
2018-09-24T22:16:38.670Z,23.00
2018-09-24T22:19:25.018Z,23.00
2018-09-24T22:22:11.583Z,23.10
2018-09-24T22:24:57.835Z,23.10
2018-09-24T22:27:44.251Z,23.10
2018-09-24T22:30:30.627Z,23.10
2018-09-24T22:33:17.083Z,23.10
2018-09-24T22:36:03.421Z,23.10
2018-09-24T22:38:49.651Z,23.10
2018-09-24T22:41:36.083Z,23.00
2018-09-24T22:44:22.537Z,23.00
2018-09-24T22:47:08.845Z,23.00
2018-09-24T22:49:55.396Z,23.00
2018-09-24T22:52:41.684Z,23.00
2018-09-24T22:55:27.979Z,23.00
2018-09-24T22:58:14.243Z,23.00
2018-09-24T23:01:00.820Z,23.10
2018-09-24T23:03:47.227Z,23.00
2018-09-24T23:06:33.384Z,23.10
2018-09-24T23:09:19.939Z,23.00
2018-09-24T23:12:06.189Z,23.00
2018-09-24T23:14:52.707Z,23.00
2018-09-24T23:17:39.079Z,23.00
2018-09-24T23:20:25.371Z,22.90
2018-09-24T23:23:11.688Z,22.90
2018-09-24T23:25:58.303Z,22.90
2018-09-24T23:28:44.395Z,22.80
2018-09-24T23:31:30.815Z,22.80
2018-09-24T23:34:17.104Z,22.70
2018-09-24T23:37:03.880Z,22.70
2018-09-24T23:39:49.995Z,22.70
2018-09-24T23:42:36.299Z,22.70
2018-09-24T23:45:22.812Z,22.70
2018-09-24T23:48:09.130Z,22.70
2018-09-24T23:50:55.565Z,22.70
2018-09-24T23:53:42.064Z,22.70
2018-09-24T23:56:28.308Z,22.70
2018-09-24T23:59:14.939Z,22.60
